createdAt,value
2019-06-27T04:00:58.861Z,997.86
2019-06-27T04:01:59.035Z,997.85
2019-06-27T04:02:59.209Z,997.84
2019-06-27T04:03:59.391Z,997.87
2019-06-27T04:04:59.561Z,997.86
2019-06-27T04:05:59.748Z,997.83
2019-06-27T04:06:59.919Z,997.79
2019-06-27T04:08:00.093Z,997.77
2019-06-27T04:09:00.270Z,997.74
2019-06-27T04:10:00.447Z,997.75
2019-06-27T04:11:00.628Z,997.75
2019-06-27T04:12:00.797Z,997.74
2019-06-27T04:13:00.973Z,997.71
2019-06-27T04:14:01.175Z,997.67
2019-06-27T04:15:01.326Z,997.68
2019-06-27T04:16:01.508Z,997.65
2019-06-27T04:17:01.688Z,997.65
2019-06-27T04:18:01.853Z,997.68
2019-06-27T04:19:02.029Z,997.70
2019-06-27T04:20:02.206Z,997.72
2019-06-27T04:21:02.381Z,997.76
2019-06-27T04:22:02.562Z,997.76
2019-06-27T04:23:02.737Z,997.72
2019-06-27T04:24:02.925Z,997.77
2019-06-27T04:25:03.100Z,997.78
2019-06-27T04:26:03.285Z,997.73
2019-06-27T04:27:03.446Z,997.77
2019-06-27T04:28:03.624Z,997.73
2019-06-27T04:29:03.800Z,997.76
2019-06-27T04:30:03.976Z,997.76
2019-06-27T04:31:04.156Z,997.77
2019-06-27T04:32:04.327Z,997.74
2019-06-27T04:33:04.518Z,997.74
2019-06-27T04:34:04.678Z,997.79
2019-06-27T04:35:04.854Z,997.79
2019-06-27T04:36:05.033Z,997.80
2019-06-27T04:37:05.206Z,997.81
2019-06-27T04:38:05.383Z,997.89
2019-06-27T04:39:05.559Z,997.90
2019-06-27T04:40:05.735Z,997.86
2019-06-27T04:41:05.913Z,997.86
2019-06-27T04:42:06.094Z,997.89
2019-06-27T04:43:06.548Z,997.93
2019-06-27T04:44:06.444Z,997.98
2019-06-27T04:45:06.625Z,997.91
2019-06-27T04:46:06.800Z,997.95
2019-06-27T04:47:06.989Z,997.97
2019-06-27T04:48:07.162Z,997.96
2019-06-27T04:49:12.787Z,997.93
2019-06-27T04:50:07.523Z,997.94
2019-06-27T04:51:07.678Z,997.94
2019-06-27T04:52:07.852Z,997.96
2019-06-27T04:53:08.036Z,997.99
2019-06-27T04:54:08.205Z,997.98
2019-06-27T04:55:08.425Z,998.02
2019-06-27T04:56:08.576Z,998.00
2019-06-27T04:57:08.736Z,998.05
2019-06-27T04:58:08.913Z,998.00
2019-06-27T04:59:09.088Z,998.02
2019-06-27T05:00:09.268Z,998.08
2019-06-27T05:01:09.441Z,998.06
2019-06-27T05:02:09.619Z,998.07
2019-06-27T05:03:09.794Z,998.07
2019-06-27T05:04:09.978Z,998.04
2019-06-27T05:05:10.144Z,998.06
2019-06-27T05:06:10.340Z,998.07
2019-06-27T05:07:10.498Z,998.07
2019-06-27T05:08:14.185Z,998.13
2019-06-27T05:09:10.854Z,998.11
2019-06-27T05:10:11.026Z,998.15
2019-06-27T05:11:11.206Z,998.15
2019-06-27T05:12:11.393Z,998.16
2019-06-27T05:13:11.563Z,998.20
2019-06-27T05:14:11.737Z,998.21
2019-06-27T05:15:11.914Z,998.26
2019-06-27T05:16:12.089Z,998.23
2019-06-27T05:17:12.265Z,998.29
2019-06-27T05:18:12.440Z,998.26
2019-06-27T05:19:12.621Z,998.23
2019-06-27T05:20:12.804Z,998.26
2019-06-27T05:21:12.979Z,998.28
2019-06-27T05:22:13.145Z,998.27
2019-06-27T05:23:13.320Z,998.29
2019-06-27T05:24:13.500Z,998.29
2019-06-27T05:25:13.676Z,998.26
2019-06-27T05:26:13.877Z,998.33
2019-06-27T05:27:14.027Z,998.26
2019-06-27T05:28:14.203Z,998.31
2019-06-27T05:29:14.385Z,998.28
2019-06-27T05:30:14.556Z,998.33
2019-06-27T05:31:14.733Z,998.26
2019-06-27T05:32:14.909Z,998.29
2019-06-27T05:33:15.082Z,998.26
2019-06-27T05:34:15.258Z,998.24
2019-06-27T05:35:15.434Z,998.27
2019-06-27T05:36:15.614Z,998.27
2019-06-27T05:37:15.788Z,998.31
2019-06-27T05:38:15.962Z,998.31
2019-06-27T05:39:16.137Z,998.34
2019-06-27T05:40:16.312Z,998.37
2019-06-27T05:41:16.489Z,998.38
2019-06-27T05:42:16.665Z,998.38
2019-06-27T05:43:16.839Z,998.41
2019-06-27T05:44:17.014Z,998.38
2019-06-27T05:45:17.192Z,998.43
2019-06-27T05:46:17.373Z,998.38
2019-06-27T05:47:17.549Z,998.40
2019-06-27T05:48:17.727Z,998.42
2019-06-27T05:49:17.904Z,998.43
2019-06-27T05:50:18.077Z,998.41
2019-06-27T05:51:18.261Z,998.44
2019-06-27T05:52:18.432Z,998.44
2019-06-27T05:53:18.611Z,998.40
2019-06-27T05:54:18.787Z,998.41
2019-06-27T05:55:18.960Z,998.43
2019-06-27T05:56:19.136Z,998.43
2019-06-27T05:57:19.309Z,998.42
2019-06-27T05:58:19.486Z,998.41
2019-06-27T05:59:19.667Z,998.44
2019-06-27T06:00:28.525Z,998.43
2019-06-27T06:01:20.015Z,998.44
2019-06-27T06:02:20.187Z,998.47
2019-06-27T06:03:20.364Z,998.44
2019-06-27T06:04:23.941Z,998.48
2019-06-27T06:05:20.712Z,998.48
2019-06-27T06:06:20.913Z,998.49
2019-06-27T06:07:21.059Z,998.44
2019-06-27T06:08:21.241Z,998.46
2019-06-27T06:09:21.404Z,998.48
2019-06-27T06:10:21.580Z,998.51
2019-06-27T06:11:21.753Z,998.55
2019-06-27T06:12:21.928Z,998.56
2019-06-27T06:13:22.123Z,998.55
2019-06-27T06:14:22.279Z,998.58
2019-06-27T06:15:22.464Z,998.59
2019-06-27T06:16:22.638Z,998.61
2019-06-27T06:17:22.814Z,998.61
2019-06-27T06:18:22.993Z,998.63
2019-06-27T06:19:23.166Z,998.65
2019-06-27T06:20:23.344Z,998.69
2019-06-27T06:21:23.520Z,998.72
2019-06-27T06:22:23.690Z,998.68
2019-06-27T06:23:23.864Z,998.77
2019-06-27T06:24:24.043Z,998.75
2019-06-27T06:25:24.217Z,998.69
2019-06-27T06:26:24.395Z,998.72
2019-06-27T06:27:24.572Z,998.77
2019-06-27T06:28:24.746Z,998.73
2019-06-27T06:29:24.919Z,998.68
2019-06-27T06:30:25.095Z,998.66
2019-06-27T06:31:25.276Z,998.66
2019-06-27T06:32:25.453Z,998.72
2019-06-27T06:33:25.627Z,998.72
2019-06-27T06:34:25.799Z,998.69
2019-06-27T06:35:25.976Z,998.71
2019-06-27T06:36:26.156Z,998.71
2019-06-27T06:37:26.331Z,998.73
2019-06-27T06:38:26.508Z,998.69
2019-06-27T06:39:26.682Z,998.69
2019-06-27T06:40:26.857Z,998.71
2019-06-27T06:41:27.032Z,998.73
2019-06-27T06:42:27.206Z,998.75
2019-06-27T06:43:27.382Z,998.68
2019-06-27T06:44:27.559Z,998.73
2019-06-27T06:45:27.731Z,998.65
2019-06-27T06:46:27.912Z,998.64
2019-06-27T06:47:28.090Z,998.67
2019-06-27T06:48:28.264Z,998.64
2019-06-27T06:49:28.440Z,998.68
2019-06-27T06:50:28.622Z,998.68
2019-06-27T06:51:28.798Z,998.66
2019-06-27T06:52:28.971Z,998.63
2019-06-27T06:53:29.150Z,998.67
2019-06-27T06:54:29.324Z,998.70
2019-06-27T06:55:29.501Z,998.68
2019-06-27T06:56:29.678Z,998.71
2019-06-27T06:57:29.853Z,998.72
2019-06-27T06:58:30.027Z,998.70
2019-06-27T06:59:30.214Z,998.74
2019-06-27T07:00:30.405Z,998.73
2019-06-27T07:01:30.560Z,998.73
2019-06-27T07:02:30.735Z,998.76
2019-06-27T07:03:30.969Z,998.77
2019-06-27T07:04:31.087Z,998.79
2019-06-27T07:05:31.262Z,998.77
2019-06-27T07:06:31.439Z,998.79
2019-06-27T07:07:31.616Z,998.80
2019-06-27T07:08:31.793Z,998.78
2019-06-27T07:09:31.966Z,998.78
2019-06-27T07:10:32.142Z,998.75
2019-06-27T07:11:32.324Z,998.72
2019-06-27T07:12:32.498Z,998.72
2019-06-27T07:13:32.672Z,998.74
2019-06-27T07:14:32.848Z,998.74
2019-06-27T07:15:33.025Z,998.76
2019-06-27T07:16:33.206Z,998.73
2019-06-27T07:17:33.377Z,998.72
2019-06-27T07:18:33.556Z,998.68
2019-06-27T07:19:33.735Z,998.72
2019-06-27T07:20:33.911Z,998.74
2019-06-27T07:21:34.082Z,998.74
2019-06-27T07:22:34.256Z,998.70
2019-06-27T07:23:34.432Z,998.72
2019-06-27T07:24:34.608Z,998.72
2019-06-27T07:25:34.784Z,998.68
2019-06-27T07:26:34.964Z,998.64
2019-06-27T07:27:35.147Z,998.71
2019-06-27T07:28:35.318Z,998.71
2019-06-27T07:29:35.489Z,998.73
2019-06-27T07:30:35.715Z,998.74
2019-06-27T07:31:35.848Z,998.73
2019-06-27T07:32:36.013Z,998.71
2019-06-27T07:33:36.191Z,998.69
2019-06-27T07:34:36.369Z,998.78
2019-06-27T07:35:36.541Z,998.78
2019-06-27T07:36:36.719Z,998.78
2019-06-27T07:37:36.894Z,998.81
2019-06-27T07:38:37.077Z,998.78
2019-06-27T07:39:37.250Z,998.84
2019-06-27T07:40:37.426Z,998.81
2019-06-27T07:41:37.602Z,998.88
2019-06-27T07:42:37.777Z,998.88
2019-06-27T07:43:37.957Z,998.90
2019-06-27T07:44:38.134Z,998.89
2019-06-27T07:45:38.309Z,998.90
2019-06-27T07:46:38.484Z,998.87
2019-06-27T07:47:38.667Z,998.92
2019-06-27T07:48:38.865Z,998.90
2019-06-27T07:49:39.014Z,998.93
2019-06-27T07:50:39.192Z,998.87
2019-06-27T07:51:39.372Z,998.93
2019-06-27T07:52:39.544Z,998.92
2019-06-27T07:53:39.724Z,998.94
2019-06-27T07:54:39.900Z,998.98
2019-06-27T07:55:40.090Z,998.96
2019-06-27T07:56:40.252Z,998.97
2019-06-27T07:57:40.436Z,998.98
2019-06-27T07:58:40.607Z,998.99
2019-06-27T07:59:40.782Z,999.01
2019-06-27T08:00:40.960Z,998.99
2019-06-27T08:01:41.136Z,999.02
2019-06-27T08:02:41.310Z,999.00
2019-06-27T08:03:41.484Z,999.00
2019-06-27T08:04:41.663Z,999.05
2019-06-27T08:05:41.839Z,999.05
2019-06-27T08:06:42.017Z,999.07
2019-06-27T08:07:42.195Z,999.07
2019-06-27T08:08:42.374Z,999.03
2019-06-27T08:09:42.548Z,999.00
2019-06-27T08:10:42.724Z,999.03
2019-06-27T08:11:42.906Z,999.00
2019-06-27T08:12:43.080Z,998.99
2019-06-27T08:13:43.262Z,998.98
2019-06-27T08:14:43.440Z,998.99
2019-06-27T08:15:43.613Z,998.97
2019-06-27T08:16:43.788Z,998.98
2019-06-27T08:17:43.966Z,998.98
2019-06-27T08:18:44.145Z,998.97
2019-06-27T08:19:44.319Z,998.98
2019-06-27T08:20:44.497Z,998.96
2019-06-27T08:21:44.673Z,998.97
2019-06-27T08:22:44.851Z,998.96
2019-06-27T08:23:45.027Z,998.96
2019-06-27T08:24:45.201Z,998.96
2019-06-27T08:28:17.138Z,998.88
2019-06-27T08:29:17.312Z,998.86
2019-06-27T08:30:17.532Z,998.88
2019-06-27T08:31:17.709Z,998.86
2019-06-27T08:32:17.875Z,998.83
2019-06-27T08:33:18.085Z,998.85
2019-06-27T08:34:18.228Z,998.87
2019-06-27T08:35:18.402Z,998.83
2019-06-27T08:36:18.583Z,998.82
2019-06-27T08:37:18.755Z,998.78
2019-06-27T08:38:18.933Z,998.79
2019-06-27T08:39:19.109Z,998.80
2019-06-27T08:40:19.285Z,998.84
2019-06-27T08:41:19.460Z,998.82
2019-06-27T08:42:19.637Z,998.81
2019-06-27T08:43:19.814Z,998.82
2019-06-27T08:44:20.005Z,998.77
2019-06-27T08:45:20.159Z,998.77
2019-06-27T08:46:20.341Z,998.80
2019-06-27T08:47:20.515Z,998.79
2019-06-27T08:48:20.692Z,998.79
2019-06-27T08:49:20.885Z,998.74
2019-06-27T08:50:21.043Z,998.77
2019-06-27T08:51:21.221Z,998.73
2019-06-27T08:52:21.401Z,998.74
2019-06-27T08:53:21.586Z,998.70
2019-06-27T08:54:21.747Z,998.74
2019-06-27T08:55:21.923Z,998.68
2019-06-27T08:56:22.098Z,998.68
2019-06-27T08:57:22.273Z,998.70
2019-06-27T08:58:22.455Z,998.63
2019-06-27T08:59:22.625Z,998.66
2019-06-27T09:00:22.801Z,998.63
2019-06-27T09:01:22.978Z,998.65
2019-06-27T09:02:23.170Z,998.65
2019-06-27T09:03:23.341Z,998.68
2019-06-27T09:04:23.517Z,998.66
2019-06-27T09:05:23.692Z,998.63
2019-06-27T09:06:23.866Z,998.64
2019-06-27T09:07:24.053Z,998.58
2019-06-27T09:08:24.222Z,998.55
2019-06-27T09:09:24.399Z,998.59
2019-06-27T09:10:24.574Z,998.55
2019-06-27T09:11:24.754Z,998.58
2019-06-27T09:12:24.928Z,998.57
2019-06-27T09:13:25.102Z,998.54
2019-06-27T09:14:25.275Z,998.53
2019-06-27T09:15:25.462Z,998.52
2019-06-27T09:16:25.633Z,998.52
2019-06-27T09:17:25.810Z,998.52
2019-06-27T09:18:25.986Z,998.54
2019-06-27T09:19:26.158Z,998.54
2019-06-27T09:20:26.335Z,998.53
2019-06-27T09:21:26.512Z,998.56
2019-06-27T09:22:26.697Z,998.54
2019-06-27T09:23:26.860Z,998.55
2019-06-27T09:24:27.035Z,998.53
2019-06-27T09:25:27.215Z,998.57
2019-06-27T09:26:27.385Z,998.57
2019-06-27T09:27:27.561Z,998.53
2019-06-27T09:28:27.741Z,998.53
2019-06-27T09:29:27.918Z,998.53
2019-06-27T09:30:28.094Z,998.50
2019-06-27T09:31:28.271Z,998.53
2019-06-27T09:32:28.449Z,998.52
2019-06-27T09:33:28.624Z,998.46
2019-06-27T09:34:28.798Z,998.47
2019-06-27T09:35:28.973Z,998.48
2019-06-27T09:36:29.148Z,998.47
2019-06-27T09:37:29.324Z,998.46
2019-06-27T09:38:29.506Z,998.49
2019-06-27T09:39:29.682Z,998.51
2019-06-27T09:40:29.865Z,998.49
2019-06-27T09:41:30.029Z,998.49
2019-06-27T09:42:30.204Z,998.47
2019-06-27T09:43:30.381Z,998.51
2019-06-27T09:44:30.560Z,998.51
2019-06-27T09:45:30.739Z,998.51
2019-06-27T09:46:30.915Z,998.51
2019-06-27T09:47:31.090Z,998.48
2019-06-27T09:48:31.269Z,998.55
2019-06-27T09:49:31.447Z,998.51
2019-06-27T09:50:31.621Z,998.55
2019-06-27T09:51:31.800Z,998.58
2019-06-27T09:52:31.973Z,998.55
2019-06-27T09:53:32.150Z,998.54
2019-06-27T09:54:32.328Z,998.54
2019-06-27T09:55:32.504Z,998.54
2019-06-27T09:56:32.704Z,998.61
2019-06-27T09:57:32.857Z,998.58
2019-06-27T09:58:33.041Z,998.56
2019-06-27T09:59:33.211Z,998.57
2019-06-27T10:00:33.389Z,998.53
2019-06-27T10:01:33.561Z,998.50
2019-06-27T10:02:41.378Z,998.44
2019-06-27T10:03:33.921Z,998.47
2019-06-27T10:04:34.097Z,998.53
2019-06-27T10:05:34.272Z,998.48
2019-06-27T10:06:34.447Z,998.49
2019-06-27T10:07:34.626Z,998.48
2019-06-27T10:08:34.802Z,998.49
2019-06-27T10:09:34.976Z,998.52
2019-06-27T10:10:35.152Z,998.51
2019-06-27T10:11:35.327Z,998.53
2019-06-27T10:12:42.123Z,998.47
2019-06-27T10:13:35.679Z,998.51
2019-06-27T10:14:35.854Z,998.56
2019-06-27T10:15:36.031Z,998.53
2019-06-27T10:16:36.207Z,998.58
2019-06-27T10:17:36.382Z,998.56
2019-06-27T10:18:36.559Z,998.64
2019-06-27T10:19:36.737Z,998.63
2019-06-27T10:20:36.911Z,998.69
2019-06-27T10:21:37.093Z,998.70
2019-06-27T10:22:37.271Z,998.67
2019-06-27T10:23:37.442Z,998.74
2019-06-27T10:24:37.617Z,998.79
2019-06-27T10:25:38.337Z,998.82
2019-06-27T10:26:37.968Z,998.82
2019-06-27T10:27:38.195Z,998.83
2019-06-27T10:28:38.339Z,998.83
2019-06-27T10:29:38.573Z,998.82
2019-06-27T10:30:38.706Z,998.81
2019-06-27T10:31:38.915Z,998.80
2019-06-27T10:32:39.143Z,998.84
2019-06-27T10:33:39.283Z,998.80
2019-06-27T10:34:39.469Z,998.87
2019-06-27T10:35:39.570Z,998.84
2019-06-27T10:36:39.753Z,998.89
2019-06-27T10:37:39.925Z,998.86
2019-06-27T10:38:40.104Z,998.81
2019-06-27T10:39:40.287Z,998.83
2019-06-27T10:40:40.463Z,998.84
2019-06-27T10:41:40.646Z,998.84
2019-06-27T10:42:40.838Z,998.84
2019-06-27T10:43:41.000Z,998.88
2019-06-27T10:44:41.178Z,998.85
2019-06-27T10:45:41.358Z,998.90
2019-06-27T10:46:41.536Z,998.93
2019-06-27T10:47:41.712Z,999.02
2019-06-27T10:48:41.891Z,999.23
2019-06-27T10:49:42.075Z,999.41
2019-06-27T10:50:42.248Z,999.50
2019-06-27T10:51:42.439Z,999.55
2019-06-27T10:52:42.607Z,999.64
2019-06-27T10:53:42.803Z,999.71
2019-06-27T10:54:42.968Z,999.77
2019-06-27T10:55:43.149Z,999.88
2019-06-27T10:56:43.335Z,1000.02
2019-06-27T10:57:43.506Z,1000.19
2019-06-27T10:58:43.687Z,1000.37
2019-06-27T10:59:43.868Z,1000.44
2019-06-27T11:00:44.048Z,1000.54
2019-06-27T11:01:44.231Z,1000.62
2019-06-27T11:02:44.412Z,1000.73
2019-06-27T11:03:44.592Z,1000.74
2019-06-27T11:04:44.775Z,1000.71
2019-06-27T11:05:44.948Z,1000.78
2019-06-27T11:06:45.150Z,1000.90
2019-06-27T11:07:45.343Z,1000.96
2019-06-27T11:08:45.531Z,1001.06
2019-06-27T11:09:45.710Z,1001.12
2019-06-27T11:10:45.901Z,1001.13
2019-06-27T11:11:46.064Z,1001.18
2019-06-27T11:12:46.245Z,1001.28
2019-06-27T11:13:58.357Z,1001.32
2019-06-27T11:14:58.588Z,1001.35
2019-06-27T11:15:49.248Z,1001.29
2019-06-27T11:16:46.980Z,1001.23
2019-06-27T11:17:47.152Z,1001.22
2019-06-27T11:18:47.337Z,1001.13
2019-06-27T11:19:52.459Z,1001.08
2019-06-27T11:20:47.703Z,1001.02
2019-06-27T11:21:47.891Z,1000.95
2019-06-27T11:22:48.079Z,1000.89
2019-06-27T11:23:48.261Z,1000.71
2019-06-27T11:24:48.446Z,1000.53
2019-06-27T11:25:48.631Z,1000.52
2019-06-27T11:26:48.809Z,1000.63
2019-06-27T11:27:48.997Z,1000.57
2019-06-27T11:28:49.180Z,1000.51
2019-06-27T11:29:49.366Z,1000.52
2019-06-27T11:30:49.551Z,1000.47
2019-06-27T11:31:49.723Z,1000.49
2019-06-27T11:32:49.908Z,1000.48
2019-06-27T11:33:50.090Z,1000.41
2019-06-27T11:34:50.274Z,1000.36
2019-06-27T11:35:50.455Z,1000.34
2019-06-27T11:36:50.637Z,1000.24
2019-06-27T11:37:50.824Z,1000.11
2019-06-27T11:38:51.013Z,1000.12
2019-06-27T11:39:51.186Z,1000.09
2019-06-27T11:40:51.495Z,1000.08
2019-06-27T11:41:51.585Z,1000.08
2019-06-27T11:42:51.751Z,1000.00
2019-06-27T11:43:51.934Z,999.98
2019-06-27T11:44:52.117Z,999.98
2019-06-27T11:45:52.303Z,999.93
2019-06-27T11:46:52.486Z,999.91
2019-06-27T11:47:52.672Z,999.86
2019-06-27T11:48:52.862Z,999.89
2019-06-27T11:49:53.041Z,999.86
2019-06-27T11:50:53.226Z,999.81
2019-06-27T11:51:53.417Z,999.80
2019-06-27T11:52:53.589Z,999.76
2019-06-27T11:53:53.774Z,999.72
2019-06-27T11:54:53.957Z,999.71
2019-06-27T11:55:54.142Z,999.68
2019-06-27T11:56:54.329Z,999.70
2019-06-27T11:57:56.747Z,999.70
2019-06-27T11:58:54.698Z,999.74
2019-06-27T11:59:54.892Z,999.72
2019-06-27T12:00:55.071Z,999.67
2019-06-27T12:01:55.254Z,999.71
2019-06-27T12:02:55.438Z,999.65
2019-06-27T12:03:55.619Z,999.62
2019-06-27T12:04:55.801Z,999.59
2019-06-27T12:05:55.985Z,999.59
2019-06-27T12:06:56.169Z,999.58
2019-06-27T12:07:56.353Z,999.58
2019-06-27T12:08:56.536Z,999.56
2019-06-27T12:09:56.717Z,999.55
2019-06-27T12:10:56.916Z,999.63
2019-06-27T12:11:57.092Z,999.61
2019-06-27T12:12:57.276Z,999.65
2019-06-27T12:13:57.506Z,999.69
2019-06-27T12:14:57.651Z,999.47
2019-06-27T12:15:57.833Z,999.28
2019-06-27T12:16:58.015Z,998.98
2019-06-27T12:17:58.203Z,998.74
2019-06-27T12:18:58.374Z,998.64
2019-06-27T12:19:58.562Z,998.62
2019-06-27T12:20:58.746Z,998.65
2019-06-27T12:21:58.931Z,998.62
2019-06-27T12:22:59.121Z,998.59
2019-06-27T12:23:59.302Z,998.58
2019-06-27T12:24:59.485Z,998.55
2019-06-27T12:25:59.670Z,998.58
2019-06-27T12:26:59.870Z,998.52
2019-06-27T12:28:00.042Z,998.53
2019-06-27T12:29:00.228Z,998.51
2019-06-27T12:30:00.494Z,998.50
2019-06-27T12:31:10.328Z,998.50
2019-06-27T12:32:00.780Z,998.48
2019-06-27T12:33:00.979Z,998.45
2019-06-27T12:34:07.055Z,998.44
2019-06-27T12:35:01.357Z,998.46
2019-06-27T12:36:01.539Z,998.41
2019-06-27T12:37:01.726Z,998.43
2019-06-27T12:38:01.911Z,998.43
2019-06-27T12:39:02.092Z,998.44
2019-06-27T12:40:02.486Z,998.35
2019-06-27T12:41:02.484Z,998.42
2019-06-27T12:42:02.657Z,998.41
2019-06-27T12:43:02.855Z,998.43
2019-06-27T12:44:03.029Z,998.40
2019-06-27T12:45:03.211Z,998.41
2019-06-27T12:46:03.907Z,998.36
2019-06-27T12:47:03.580Z,998.41
2019-06-27T12:48:07.074Z,998.36
2019-06-27T12:49:03.948Z,998.35
2019-06-27T12:50:04.131Z,998.39
2019-06-27T12:51:04.323Z,998.32
2019-06-27T12:52:04.563Z,998.28
2019-06-27T12:53:04.691Z,998.26
2019-06-27T12:54:04.894Z,998.25
2019-06-27T12:55:05.066Z,998.24
2019-06-27T12:56:05.250Z,998.24
2019-06-27T12:57:05.433Z,998.26
2019-06-27T12:58:05.619Z,998.21
2019-06-27T12:59:05.807Z,998.17
2019-06-27T13:00:08.701Z,998.17
2019-06-27T13:01:06.180Z,998.17
2019-06-27T13:02:06.368Z,998.19
2019-06-27T13:03:06.557Z,998.21
2019-06-27T13:04:22.419Z,998.17
2019-06-27T13:05:06.928Z,998.16
2019-06-27T13:06:07.113Z,998.15
2019-06-27T13:07:07.306Z,998.14
2019-06-27T13:08:07.477Z,998.03
2019-06-27T13:09:07.665Z,998.11
2019-06-27T13:10:07.846Z,998.08
2019-06-27T13:11:08.031Z,998.10
2019-06-27T13:12:08.214Z,998.11
2019-06-27T13:13:08.400Z,998.10
2019-06-27T13:14:08.580Z,998.08
2019-06-27T13:15:08.764Z,998.06
2019-06-27T13:16:08.954Z,998.07
2019-06-27T13:17:09.137Z,998.09
2019-06-27T13:18:09.340Z,998.08
2019-06-27T13:19:09.524Z,998.08
2019-06-27T13:20:09.710Z,998.12
2019-06-27T13:21:09.906Z,998.09
2019-06-27T13:22:10.071Z,998.07
2019-06-27T13:23:10.257Z,998.10
2019-06-27T13:24:10.443Z,998.08
2019-06-27T13:25:10.650Z,998.07
2019-06-27T13:26:10.812Z,998.10
2019-06-27T13:27:11.121Z,998.04
2019-06-27T13:28:11.188Z,998.02
2019-06-27T13:29:11.367Z,998.05
2019-06-27T13:30:11.607Z,998.04
2019-06-27T13:31:11.766Z,998.06
2019-06-27T13:32:11.929Z,998.06
2019-06-27T13:33:12.115Z,998.02
2019-06-27T13:34:12.301Z,998.02
2019-06-27T13:35:12.491Z,997.98
2019-06-27T13:36:12.673Z,997.98
2019-06-27T13:37:12.859Z,997.98
2019-06-27T13:38:13.047Z,997.97
2019-06-27T13:39:13.234Z,997.96
2019-06-27T13:40:13.414Z,997.92
2019-06-27T13:41:13.603Z,997.99
2019-06-27T13:42:13.783Z,997.95
2019-06-27T13:43:13.968Z,997.95
2019-06-27T13:44:14.153Z,997.98
2019-06-27T13:45:14.338Z,997.96
2019-06-27T13:46:14.523Z,997.97
2019-06-27T13:47:14.708Z,997.96
2019-06-27T13:48:14.897Z,997.95
2019-06-27T13:49:15.081Z,997.94
2019-06-27T13:50:15.265Z,997.93
2019-06-27T13:51:15.456Z,997.94
2019-06-27T13:52:15.640Z,997.94
2019-06-27T13:53:15.826Z,997.89
2019-06-27T13:54:16.011Z,997.92
2019-06-27T13:55:16.199Z,997.93
2019-06-27T13:56:16.387Z,997.91
2019-06-27T13:57:16.570Z,997.90
2019-06-27T13:58:16.756Z,997.91
2019-06-27T13:59:16.949Z,997.92
2019-06-27T14:00:17.126Z,997.87
2019-06-27T14:01:17.312Z,997.91
2019-06-27T14:02:17.495Z,997.85
2019-06-27T14:03:17.679Z,997.84
2019-06-27T14:04:17.862Z,997.84
2019-06-27T14:05:18.048Z,997.82
2019-06-27T14:06:18.233Z,997.85
2019-06-27T14:07:18.419Z,997.81
2019-06-27T14:08:18.604Z,997.84
2019-06-27T14:09:23.501Z,997.84
2019-06-27T14:10:18.977Z,997.84
2019-06-27T14:11:19.165Z,997.85
2019-06-27T14:12:19.347Z,997.87
2019-06-27T14:13:19.535Z,997.87
2019-06-27T14:14:19.747Z,997.82
2019-06-27T14:15:19.899Z,997.81
2019-06-27T14:16:20.086Z,997.82
2019-06-27T14:17:20.277Z,997.85
2019-06-27T14:18:20.447Z,997.80
2019-06-27T14:19:20.636Z,997.84
2019-06-27T14:20:20.826Z,997.73
2019-06-27T14:21:21.001Z,997.82
2019-06-27T14:22:32.800Z,997.82
2019-06-27T14:23:21.385Z,997.78
2019-06-27T14:24:21.559Z,997.77
2019-06-27T14:25:21.739Z,997.79
2019-06-27T14:26:21.924Z,997.76
2019-06-27T14:27:22.150Z,997.71
2019-06-27T14:28:22.297Z,997.73
2019-06-27T14:29:22.473Z,997.73
2019-06-27T14:30:22.661Z,997.77
2019-06-27T14:31:22.846Z,997.77
2019-06-27T14:32:23.032Z,997.72
2019-06-27T14:33:23.224Z,997.76
2019-06-27T14:34:23.405Z,997.68
2019-06-27T14:35:23.590Z,997.78
2019-06-27T14:36:23.779Z,997.78
2019-06-27T14:37:23.960Z,997.73
2019-06-27T14:38:24.149Z,997.73
2019-06-27T14:39:24.322Z,997.71
2019-06-27T14:40:24.511Z,997.71
2019-06-27T14:41:24.701Z,997.69
2019-06-27T14:42:24.887Z,997.74
2019-06-27T14:43:25.072Z,997.68
2019-06-27T14:44:25.258Z,997.66
2019-06-27T14:45:25.441Z,997.69
2019-06-27T14:46:25.625Z,997.62
2019-06-27T14:47:25.810Z,997.57
2019-06-27T14:48:25.997Z,997.64
2019-06-27T14:49:26.197Z,997.60
2019-06-27T14:50:26.361Z,997.59
2019-06-27T14:51:26.549Z,997.57
2019-06-27T14:52:26.787Z,997.53
2019-06-27T14:53:26.926Z,997.54
2019-06-27T14:54:27.118Z,997.52
2019-06-27T14:55:27.292Z,997.51
2019-06-27T14:56:27.477Z,997.55
2019-06-27T14:57:27.665Z,997.52
2019-06-27T14:58:27.846Z,997.54
2019-06-27T14:59:28.032Z,997.56
2019-06-27T15:00:28.217Z,997.58
2019-06-27T15:01:28.402Z,997.58
2019-06-27T15:02:28.584Z,997.53
2019-06-27T15:03:32.521Z,997.53
2019-06-27T15:04:28.952Z,997.55
2019-06-27T15:05:33.069Z,997.54
2019-06-27T15:06:29.323Z,997.46
2019-06-27T15:07:29.507Z,997.48
2019-06-27T15:08:29.689Z,997.41
2019-06-27T15:09:29.874Z,997.42
2019-06-27T15:10:30.057Z,997.42
2019-06-27T15:11:30.249Z,997.44
2019-06-27T15:12:30.428Z,997.42
2019-06-27T15:13:30.612Z,997.46
2019-06-27T15:14:30.798Z,997.45
2019-06-27T15:15:30.983Z,997.42
2019-06-27T15:16:31.168Z,997.42
2019-06-27T15:17:31.359Z,997.41
2019-06-27T15:18:31.539Z,997.39
2019-06-27T15:19:31.725Z,997.42
2019-06-27T15:20:31.907Z,997.35
2019-06-27T15:21:32.099Z,997.38
2019-06-27T15:22:32.292Z,997.37
2019-06-27T15:23:32.458Z,997.37
2019-06-27T15:24:32.642Z,997.34
2019-06-27T15:25:32.822Z,997.35
2019-06-27T15:26:33.020Z,997.35
2019-06-27T15:27:33.197Z,997.39
2019-06-27T15:28:34.374Z,997.38
2019-06-27T15:29:33.572Z,997.40
2019-06-27T15:30:33.750Z,997.35
2019-06-27T15:31:33.933Z,997.42
2019-06-27T15:32:34.118Z,997.35
2019-06-27T15:33:34.305Z,997.39
2019-06-27T15:34:34.487Z,997.36
2019-06-27T15:35:50.889Z,997.43
2019-06-27T15:36:34.856Z,997.39
2019-06-27T15:37:35.040Z,997.41
2019-06-27T15:38:35.231Z,997.41
2019-06-27T15:39:35.410Z,997.40
2019-06-27T15:40:35.593Z,997.44
2019-06-27T15:41:35.784Z,997.39
2019-06-27T15:42:35.957Z,997.35
2019-06-27T15:43:36.142Z,997.41
2019-06-27T15:44:36.320Z,997.36
2019-06-27T15:45:36.508Z,997.32
2019-06-27T15:46:36.694Z,997.34
2019-06-27T15:47:36.874Z,997.33
2019-06-27T15:48:37.056Z,997.29
2019-06-27T15:49:37.243Z,997.30
2019-06-27T15:50:37.422Z,997.32
2019-06-27T15:51:37.603Z,997.28
2019-06-27T15:52:37.791Z,997.29
2019-06-27T15:53:38.001Z,997.31
2019-06-27T15:54:38.151Z,997.30
2019-06-27T15:55:38.333Z,997.16
2019-06-27T15:56:38.522Z,997.18
2019-06-27T15:57:38.696Z,997.14
2019-06-27T15:58:38.879Z,997.20
2019-06-27T15:59:39.065Z,997.14
2019-06-27T16:00:39.628Z,997.20
2019-06-27T16:01:39.425Z,997.23
2019-06-27T16:02:39.673Z,997.20
2019-06-27T16:03:39.788Z,997.16
2019-06-27T16:04:39.972Z,997.14
2019-06-27T16:05:40.161Z,997.14
2019-06-27T16:06:40.353Z,997.14
2019-06-27T16:07:40.548Z,997.04
2019-06-27T16:08:40.710Z,997.13
2019-06-27T16:09:40.896Z,997.10
2019-06-27T16:10:41.072Z,997.10
2019-06-27T16:11:41.254Z,997.14
2019-06-27T16:12:41.439Z,997.10
2019-06-27T16:13:41.629Z,997.10
2019-06-27T16:14:41.805Z,997.07
2019-06-27T16:15:41.987Z,997.06
2019-06-27T16:16:42.170Z,997.07
2019-06-27T16:17:42.352Z,997.09
2019-06-27T16:18:42.533Z,997.06
2019-06-27T16:19:42.717Z,997.11
2019-06-27T16:20:42.904Z,997.02
2019-06-27T16:21:43.084Z,997.05
2019-06-27T16:22:43.265Z,997.04
2019-06-27T16:23:43.446Z,997.09
2019-06-27T16:24:43.635Z,997.07
2019-06-27T16:25:43.814Z,997.06
2019-06-27T16:26:43.996Z,997.04
2019-06-27T16:27:44.176Z,997.03
2019-06-27T16:28:44.359Z,997.02
2019-06-27T16:29:44.541Z,997.03
2019-06-27T16:30:44.722Z,996.98
2019-06-27T16:31:44.905Z,996.89
2019-06-27T16:32:45.089Z,996.99